Belleville, Wisconsin
Current Conditions -  °F | °C
As of 2:15 PM on Sunday 21 Dec 2014 (Local Time) from KEFT Reporting Station
Overcast Overcast  
Wind Chill: 25°   Ceiling: 1000
Heat Index: 36°   Visibility: 10mi
Dew Point: 32°   Wind: 17mph
Humidity: 87%   Direction: 170°S
Pressure: 29.98"   Gusts: 21mph
Location:  42.86°N, 89.54°W
Report Text: KEFT 212015Z AUTO 17015G18KT 10SM BKN010 OVC020 02/00 A2998 RMK AO2
Loading
Personal Weather Stations






























Interactive Weather Map New forecast layout! Learn more

10-Day Weather Forecast

Advertisements
Track Severe Weather on mobile